x

Western Gulf Of Alaska - 175nm Se Of Kodiak, Ak (46001) Wave Buoy

6:50am - Mon 3rd Aug 2015 All times are AKDT. -8 hours from GMT.

  • Sig Wave height 2.0ft
  • Peak Period 13s
  • Average Period 5s
  • Wind
    9mph, 11mph gusts
  • Sea Temp 58°f
  • Air Temp 57°f
  • Sea Pressure 1022.1mb
  • Western Gulf Of Alaska  - 175nm Se Of Kodiak, Ak
  • Western Gulf Of Alaska  - 175nm Se Of Kodiak, Ak

More Historic Weather Station data

Upgrade to MSW Pro to gain access to the past 30 days of data for over 8000 Wavebouys and Weather Stations around the globe.

Join Pro

Comparision Forecast

View Surf forecast
   
Mon 08/03 6:50am 2ft 13s 5s 9 11 mph 1022.1mb 58f 57f
5:50am 2ft 13s 5s 9 11 mph 1022mb 58f 57f
4:50am 2ft 14s 5s 11
mph
1022.3mb 58f 57f
3:50am 2ft 12s 5s 9 11 mph 1022.3mb 58f 57f
2:50am 2.5ft 14s 5s 7 9 mph 1022.5mb 58f 57f
1:50am 2ft 13s 4s 9
mph
1022.7mb 58f 57f
12:50am 2ft 12s 4s 9 11 mph 1022.8mb 58f 57f
Sun 08/02 11:50pm 2.5ft 13s 4s 9 11 mph 1022.8mb 58f 57f
10:50pm 2ft 4s 4s 11
mph
1022.9mb 58f 57f
9:50pm 2ft 13s 4s 11 13 mph 1022.7mb 59f 57f
8:50pm 2ft 12s 4s 9 11 mph 1022.7mb 58f 58f
7:50pm 2ft 13s 5s 9 11 mph 1022.6mb 59f 58f
6:50pm 2.5ft 12s 5s 11 13 mph 1022.6mb 58f 58f
5:50pm 2.5ft 14s 5s 11 13 mph 1022.6mb 58f 58f
4:50pm 2.5ft 13s 5s 11 13 mph 1022.7mb 58f 58f
3:50pm 2.5ft 12s 5s 11 13 mph 1022.8mb 58f 58f
2:50pm 2.5ft 13s 5s 11 13 mph 1022.7mb 58f 57f
1:50pm 2.5ft 13s 5s 11
mph
1022.8mb 58f 57f
12:50pm 2.5ft 13s 6s 9 11 mph 1022.7mb 58f 57f
11:50am 2.5ft 13s 5s 9 11 mph 1022.6mb 58f 57f
10:50am 2.5ft 14s 5s 9
mph
1022.6mb 57f 57f
9:50am 2.5ft 13s 5s 9 11 mph 1022.5mb 57f 57f
8:50am 2.5ft 13s 7s 9 11 mph 1022.2mb 57f 57f
7:50am 2.5ft 14s 6s 9
mph
1022.1mb 57f 57f
6:50am 2.5ft 14s 7s 9
mph
1022mb 58f 57f
5:50am 2.5ft 14s 6s 11
mph
1021.8mb 58f 57f
4:50am 2.5ft 14s 6s 9 11 mph 1021.8mb 58f 57f
3:50am 2.5ft 14s 6s 9
mph
1021.8mb 58f 57f
2:50am 2.5ft 13s 6s 9
mph
1021.8mb 58f 57f
1:50am 2.5ft 14s 6s 7 9 mph 1021.9mb 58f 57f
12:50am 2.5ft 13s 6s 7 9 mph 1021.8mb 58f 57f
Sat 08/01 11:50pm 2.5ft 15s 6s 7 9 mph 1021.7mb 58f 57f
10:50pm 2.5ft 15s 5s 7 9 mph 1021.8mb 59f 57f
9:50pm 3ft 14s 6s 7 9 mph 1021.7mb 59f 57f
8:50pm 3ft 14s 6s 7 9 mph 1021.8mb 59f 57f
7:50pm 2.5ft 14s 7s 7
mph
1021.6mb 59f 58f
6:50pm 2.5ft 13s 7s 7
mph
1021.8mb 59f 58f
5:50pm 3ft 14s 7s 4 7 mph 1021.9mb 59f 58f
4:50pm 2.5ft 14s 7s 7
mph
1021.8mb 59f 57f
3:50pm 3ft 13s 7s 7 9 mph 1021.8mb 59f 57f
2:50pm 2.5ft 14s 6s 4 7 mph 1022mb 59f 57f
1:50pm 3ft 14s 6s 7 9 mph 1021.8mb 58f 57f
12:50pm 3.5ft 14s 6s 4 7 mph 1021.8mb 58f 57f
11:50am 3.5ft 14s 7s 7 9 mph 1021.5mb 58f 57f
10:50am 3ft 15s 6s 2 4 mph 1021.5mb 57f 57f
9:50am 3ft 14s 6s  -  mph 1021.4mb 58f 57f
8:50am 3ft 14s 7s  -  mph 1021.3mb 58f 56f
7:50am 3ft 15s 8s 2
mph
1021mb 57f 56f
6:50am 3ft 14s 8s  -  2 mph 1020.9mb 57f 56f
5:50am 3ft 15s 8s 2 4 mph 1020.7mb 57f 56f
4:50am 3.5ft 14s 7s 2 4 mph 1020.5mb 57f 56f
3:50am 3.5ft 14s 7s 4 7 mph 1020.3mb 57f 56f
2:50am 3ft 14s 6s 7
mph
1020.2mb 58f 56f
1:50am 3ft 15s 7s 7
mph
1020.4mb 58f 57f
12:50am 3ft 15s 8s 4 7 mph 1020.4mb 58f 57f
Fri 07/31 11:50pm 3ft 15s 8s 7
mph
1020.3mb 58f 57f
10:50pm 3ft 15s 8s 7 9 mph 1020.4mb 58f 57f
9:50pm 3ft 14s 8s 7
mph
1020mb 58f 57f
8:50pm 3ft 15s 8s 4 7 mph 1020mb 58f 58f
7:50pm 3ft 15s 8s 4
mph
1019.8mb 58f 58f
6:50pm 3ft 14s 8s 4
mph
1020mb 59f 59f
5:50pm 3ft 15s 9s 7
mph
1020.1mb 59f 58f
4:50pm 2.5ft 15s 8s 4
mph
1020.1mb 59f 58f
3:50pm 3ft 15s 8s 4
mph
1020mb 59f 57f
2:50pm 3ft 14s 7s 4
mph
1020mb 59f 57f
1:50pm 2.5ft 15s 7s 4 7 mph 1019.9mb 58f 57f
12:50pm 3ft 15s 7s 4 7 mph 1019.8mb 58f 57f
11:50am 3ft 15s 8s 4
mph
1019.7mb 57f 56f
10:50am 3ft 15s 8s 2 4 mph 1019.6mb 57f 56f
9:50am 3ft 15s 8s 2 4 mph 1019.5mb 57f 56f
8:50am 2.5ft 15s 8s 4 7 mph 1019.3mb 57f 56f
7:50am 2.5ft 15s 8s 2
mph
1019.3mb 57f 56f
6:50am 3.5ft 16s 9s 2 4 mph 1018.9mb 56f 56f
5:50am 3.5ft 15s 9s 2 4 mph 1018.7mb 56f 56f
4:50am 3ft 14s 9s 2 4 mph 1018.6mb 56f 56f
3:50am 3ft 15s 9s 4
mph
1018.4mb 56f 56f
2:50am 3ft 15s 8s 4
mph
1018.6mb 57f 56f
1:50am 2.5ft 15s 8s  -  2 mph 1018.5mb 57f 56f
12:50am 3ft 15s 9s  -  2 mph 1018.4mb 57f 56f
Thu 07/30 11:50pm 3ft 15s 8s 2 4 mph 1018.1mb 57f 56f
10:50pm 3ft 15s 9s 2 4 mph 1018.1mb 57f 56f
9:50pm 3.5ft 15s 9s 2 4 mph 1018mb 57f 56f
8:50pm 3ft 16s 8s 4
mph
1017.9mb 57f 56f
7:50pm 3.5ft 15s 8s 4 7 mph 1017.7mb 57f 56f
6:50pm 3.5ft 15s 9s 7 9 mph 1017.6mb 57f 57f
5:50pm 3ft 16s 9s 7
mph
1017.7mb 57f 57f
4:50pm 3ft 16s 9s 7 9 mph 1017.7mb 57f 57f